Terminal Aerodrome Forecast
Issued by NWS

Home | Current Version | Previous Version | Text Only | Print | Product List | Glossary On
Versions: 1 2 3 4 5 6 7 8 9 10 11 12 13
000
FTAK31 PAFA 300541
TAFAOT
TAF
PAOT 300541Z 3006/3106 29020KT P6SM BKN004
      TEMPO 3006/3008 2SM BR OVC004
     FM300800 28015KT 2SM BR OVC004
     FM302100 28013KT 6SM BR SCT004 OVC008=

USA.gov is the U.S. government's official web portal to all federal, state and local government web resources and services.